NCAR-RAP Real-Time Weather Data

Output produced by METARs form (23 June 2021  08:03 UTC)
found at http://weather.rap.ucar.edu/surface/
 
CYQW 230700Z AUTO 33011KT 9SM SCT160 19/11 A2953 RMK SLP997 DENSITY ALT 3100FT
CYQW 230622Z AUTO 31010G17KT 9SM BKN100 BKN130 BKN160 19/13 A2953 RMK LTNG DIST SE SLP000 DENSITY ALT 3200FT
CYQW 230612Z AUTO 30010KT 9SM -RA BKN100 BKN130 OVC150 20/12 A2953 RMK LTNG DIST SE S SLP999 DENSITY ALT 3300FT
CYQW 230609Z AUTO 29009KT 9SM BKN100 BKN130 OVC150 20/12 A2952 RMK LTNG DIST SE S SLP998 DENSITY ALT 3300FT
CYQW 230600Z AUTO 29007KT 9SM -RA BKN100 BKN120 OVC150 20/12 A2952 RMK SLP992 DENSITY ALT 3200FT
CYQW 230556Z AUTO 29007KT 9SM -RA BKN100 OVC150 20/12 A2951 RMK SLP995 DENSITY ALT 3300FT
CYQW 230500Z AUTO 26005KT 9SM CLR 18/11 A2950 RMK SLP988 DENSITY ALT 3000FT
CYQW 230400Z AUTO 25004KT 9SM CLR 21/11 A2949 RMK SLP985 DENSITY ALT 3400FT
CYQW 230300Z AUTO 29005KT 9SM CLR 24/11 A2949 RMK SLP983 DENSITY ALT 3800FT
CYQW 230200Z AUTO 27009G15KT 9SM CLR 26/11 A2949 RMK SLP983 DENSITY ALT 4000FT
CYQW 230100Z AUTO 26010G17KT 9SM CLR 28/12 A2949 RMK SLP983 DENSITY ALT 4200FT
CYQW 230000Z AUTO 30011G17KT 9SM FEW130 28/13 A2949 RMK SLP984 DENSITY ALT 4200FT
CYQW 222300Z AUTO 27011KT 9SM BKN140 28/12 A2950 RMK SLP990 DENSITY ALT 4200FT
CYQW 222200Z AUTO 18003KT 140V230 9SM FEW100 BKN150 28/12 A2951 RMK SLP992 DENSITY ALT 4200FT
CYQW 222100Z AUTO 24004KT 170V260 9SM CLR 28/11 A2954 RMK SLP002 DENSITY ALT 4200FT